sensor_id;sensor_type;location;lat;lon;timestamp;pressure;altitude;pressure_sealevel;temperature;humidity
9129;BME280;4599;50.906;6.786;2024-03-23T00:56:21;99629.03;;;7.31;96.34
9129;BME280;4599;50.906;6.786;2024-03-23T01:00:22;99618.50;;;7.36;96.35
9129;BME280;4599;50.906;6.786;2024-03-23T01:04:22;99630.75;;;7.31;95.62
9129;BME280;4599;50.906;6.786;2024-03-23T01:08:23;99619.28;;;7.13;96.10
9129;BME280;4599;50.906;6.786;2024-03-23T01:12:25;99611.50;;;7.27;96.23
9129;BME280;4599;50.906;6.786;2024-03-23T01:16:26;99615.91;;;7.12;96.20
9129;BME280;4599;50.906;6.786;2024-03-23T01:20:27;99617.25;;;7.18;96.49
9129;BME280;4599;50.906;6.786;2024-03-23T01:24:28;99607.47;;;7.12;96.94
9129;BME280;4599;50.906;6.786;2024-03-23T01:28:30;99618.59;;;7.11;95.38
9129;BME280;4599;50.906;6.786;2024-03-23T01:32:31;99613.50;;;6.98;95.26
9129;BME280;4599;50.906;6.786;2024-03-23T01:36:31;99614.13;;;6.89;96.15
9129;BME280;4599;50.906;6.786;2024-03-23T01:40:32;99611.81;;;6.86;94.95
9129;BME280;4599;50.906;6.786;2024-03-23T01:44:34;99608.53;;;6.84;96.50
9129;BME280;4599;50.906;6.786;2024-03-23T01:48:35;99592.84;;;6.90;95.04
9129;BME280;4599;50.906;6.786;2024-03-23T01:52:36;99594.78;;;6.86;92.81
9129;BME280;4599;50.906;6.786;2024-03-23T01:56:37;99605.91;;;6.73;93.66
9129;BME280;4599;50.906;6.786;2024-03-23T02:00:39;99607.56;;;6.61;95.39
9129;BME280;4599;50.906;6.786;2024-03-23T02:04:40;99607.97;;;6.55;95.91
9129;BME280;4599;50.906;6.786;2024-03-23T02:08:41;99614.28;;;6.49;96.25
9129;BME280;4599;50.906;6.786;2024-03-23T02:12:42;99619.81;;;6.04;92.42
9129;BME280;4599;50.906;6.786;2024-03-23T02:16:44;99609.81;;;5.88;94.77
9129;BME280;4599;50.906;6.786;2024-03-23T02:20:45;99601.09;;;5.92;92.60
9129;BME280;4599;50.906;6.786;2024-03-23T02:24:47;99602.53;;;5.70;92.09
9129;BME280;4599;50.906;6.786;2024-03-23T02:28:47;99612.06;;;5.66;92.84
9129;BME280;4599;50.906;6.786;2024-03-23T02:32:48;99619.63;;;5.53;92.00
9129;BME280;4599;50.906;6.786;2024-03-23T02:36:49;99637.38;;;5.41;93.33
9129;BME280;4599;50.906;6.786;2024-03-23T02:40:51;99634.03;;;5.40;93.41
9129;BME280;4599;50.906;6.786;2024-03-23T02:44:52;99639.19;;;5.39;92.62
9129;BME280;4599;50.906;6.786;2024-03-23T02:48:53;99636.13;;;5.34;94.15
9129;BME280;4599;50.906;6.786;2024-03-23T02:52:53;99637.78;;;5.35;92.69
9129;BME280;4599;50.906;6.786;2024-03-23T02:56:55;99645.75;;;5.29;92.55
9129;BME280;4599;50.906;6.786;2024-03-23T03:00:56;99636.28;;;5.45;92.54
9129;BME280;4599;50.906;6.786;2024-03-23T03:04:57;99623.31;;;5.35;94.21
9129;BME280;4599;50.906;6.786;2024-03-23T03:08:58;99608.28;;;5.32;93.45
9129;BME280;4599;50.906;6.786;2024-03-23T03:13:00;99613.78;;;5.39;93.31
9129;BME280;4599;50.906;6.786;2024-03-23T03:17:01;99598.41;;;5.28;93.26
9129;BME280;4599;50.906;6.786;2024-03-23T03:21:02;99614.44;;;5.28;94.71
9129;BME280;4599;50.906;6.786;2024-03-23T03:25:04;99622.63;;;5.33;93.32
9129;BME280;4599;50.906;6.786;2024-03-23T03:29:06;99601.31;;;5.22;92.39
9129;BME280;4599;50.906;6.786;2024-03-23T03:33:07;99620.50;;;5.40;93.78
9129;BME280;4599;50.906;6.786;2024-03-23T03:37:08;99617.41;;;5.49;93.15
9129;BME280;4599;50.906;6.786;2024-03-23T03:41:08;99617.75;;;5.43;92.98
9129;BME280;4599;50.906;6.786;2024-03-23T03:45:10;99619.44;;;5.57;93.68
9129;BME280;4599;50.906;6.786;2024-03-23T03:49:11;99629.44;;;5.60;92.76
9129;BME280;4599;50.906;6.786;2024-03-23T03:53:12;99631.72;;;5.50;93.50
9129;BME280;4599;50.906;6.786;2024-03-23T03:57:13;99631.72;;;5.50;93.05
9129;BME280;4599;50.906;6.786;2024-03-23T04:01:15;99633.72;;;5.59;93.16
9129;BME280;4599;50.906;6.786;2024-03-23T04:05:16;99626.31;;;5.69;93.70
9129;BME280;4599;50.906;6.786;2024-03-23T04:09:16;99635.63;;;5.56;92.31
9129;BME280;4599;50.906;6.786;2024-03-23T04:13:17;99636.75;;;5.64;93.42
9129;BME280;4599;50.906;6.786;2024-03-23T04:17:19;99633.22;;;5.67;93.30
9129;BME280;4599;50.906;6.786;2024-03-23T04:21:21;99630.75;;;5.53;93.27
9129;BME280;4599;50.906;6.786;2024-03-23T04:25:22;99638.41;;;5.65;93.35
9129;BME280;4599;50.906;6.786;2024-03-23T04:29:23;99632.88;;;5.59;93.38
9129;BME280;4599;50.906;6.786;2024-03-23T04:33:25;99642.78;;;5.63;93.90
9129;BME280;4599;50.906;6.786;2024-03-23T04:37:26;99649.50;;;5.50;93.73
9129;BME280;4599;50.906;6.786;2024-03-23T04:41:27;99640.72;;;5.56;95.31
9129;BME280;4599;50.906;6.786;2024-03-23T04:45:29;99636.88;;;5.63;93.94
9129;BME280;4599;50.906;6.786;2024-03-23T04:49:32;99627.22;;;5.68;93.93
9129;BME280;4599;50.906;6.786;2024-03-23T04:53:32;99616.63;;;5.61;94.61
9129;BME280;4599;50.906;6.786;2024-03-23T04:57:33;99618.81;;;5.53;94.54
9129;BME280;4599;50.906;6.786;2024-03-23T05:01:34;99627.25;;;5.53;94.40
9129;BME280;4599;50.906;6.786;2024-03-23T05:05:36;99623.75;;;5.56;94.27
9129;BME280;4599;50.906;6.786;2024-03-23T05:09:37;99624.63;;;5.55;94.58
9129;BME280;4599;50.906;6.786;2024-03-23T05:13:38;99628.09;;;5.54;94.44
9129;BME280;4599;50.906;6.786;2024-03-23T05:17:40;99594.59;;;5.35;94.94
9129;BME280;4599;50.906;6.786;2024-03-23T05:21:42;99629.53;;;5.58;95.45
9129;BME280;4599;50.906;6.786;2024-03-23T05:25:43;99629.72;;;5.55;95.59
9129;BME280;4599;50.906;6.786;2024-03-23T05:29:44;99622.28;;;5.52;95.42
9129;BME280;4599;50.906;6.786;2024-03-23T05:33:45;99628.88;;;5.42;94.62
9129;BME280;4599;50.906;6.786;2024-03-23T05:37:47;99634.47;;;5.47;96.20
9129;BME280;4599;50.906;6.786;2024-03-23T05:41:49;99632.81;;;5.46;93.95
9129;BME280;4599;50.906;6.786;2024-03-23T05:45:53;99637.31;;;5.28;94.58
9129;BME280;4599;50.906;6.786;2024-03-23T05:49:55;99634.97;;;5.25;95.50
9129;BME280;4599;50.906;6.786;2024-03-23T05:53:57;99631.16;;;5.18;95.87
9129;BME280;4599;50.906;6.786;2024-03-23T05:57:58;99641.50;;;5.15;95.56
9129;BME280;4599;50.906;6.786;2024-03-23T06:01:58;99649.38;;;5.25;96.42
9129;BME280;4599;50.906;6.786;2024-03-23T06:05:59;99647.34;;;5.17;95.19
9129;BME280;4599;50.906;6.786;2024-03-23T06:10:01;99647.03;;;5.22;95.91
9129;BME280;4599;50.906;6.786;2024-03-23T06:14:02;99644.13;;;5.14;95.35
9129;BME280;4599;50.906;6.786;2024-03-23T06:18:03;99647.78;;;5.10;95.67
9129;BME280;4599;50.906;6.786;2024-03-23T06:22:04;99656.03;;;5.13;96.73
9129;BME280;4599;50.906;6.786;2024-03-23T06:26:06;99654.28;;;5.14;95.49
9129;BME280;4599;50.906;6.786;2024-03-23T06:30:08;99665.16;;;5.30;95.71
9129;BME280;4599;50.906;6.786;2024-03-23T06:34:08;99653.09;;;5.33;94.79
9129;BME280;4599;50.906;6.786;2024-03-23T06:38:09;99596.28;;;4.93;93.99
9129;BME280;4599;50.906;6.786;2024-03-23T06:42:11;99661.16;;;5.40;94.33
9129;BME280;4599;50.906;6.786;2024-03-23T06:46:13;99658.16;;;5.47;94.11
9129;BME280;4599;50.906;6.786;2024-03-23T06:50:14;99664.91;;;5.61;95.10
9129;BME280;4599;50.906;6.786;2024-03-23T06:54:16;99671.78;;;5.73;94.76
9129;BME280;4599;50.906;6.786;2024-03-23T06:58:19;99671.94;;;5.84;94.26
9129;BME280;4599;50.906;6.786;2024-03-23T07:02:21;99671.88;;;6.25;91.54
9129;BME280;4599;50.906;6.786;2024-03-23T07:06:21;99671.41;;;7.69;87.66
9129;BME280;4599;50.906;6.786;2024-03-23T07:10:22;99660.13;;;9.42;79.70
9129;BME280;4599;50.906;6.786;2024-03-23T07:14:24;99665.72;;;10.94;73.12
9129;BME280;4599;50.906;6.786;2024-03-23T07:18:25;99649.06;;;12.07;67.62
9129;BME280;4599;50.906;6.786;2024-03-23T07:22:26;99672.91;;;12.65;65.21
9129;BME280;4599;50.906;6.786;2024-03-23T07:26:27;99670.59;;;12.71;62.80
9129;BME280;4599;50.906;6.786;2024-03-23T07:30:29;99678.03;;;13.21;61.28
9129;BME280;4599;50.906;6.786;2024-03-23T07:34:30;99672.38;;;13.17;61.06
9129;BME280;4599;50.906;6.786;2024-03-23T07:38:31;99689.84;;;12.48;64.80
9129;BME280;4599;50.906;6.786;2024-03-23T07:42:32;99690.69;;;10.71;68.52
9129;BME280;4599;50.906;6.786;2024-03-23T07:46:34;99682.16;;;9.77;73.11
9129;BME280;4599;50.906;6.786;2024-03-23T07:50:35;99675.41;;;10.90;70.00
9129;BME280;4599;50.906;6.786;2024-03-23T07:54:35;99674.00;;;12.62;63.90
9129;BME280;4599;50.906;6.786;2024-03-23T07:58:37;99676.47;;;12.44;59.07
9129;BME280;4599;50.906;6.786;2024-03-23T08:02:39;99679.22;;;13.26;51.37
9129;BME280;4599;50.906;6.786;2024-03-23T08:06:41;99686.00;;;12.81;53.79
9129;BME280;4599;50.906;6.786;2024-03-23T08:10:49;99687.13;;;12.59;55.08
9129;BME280;4599;50.906;6.786;2024-03-23T08:14:49;99681.69;;;13.09;53.51
9129;BME280;4599;50.906;6.786;2024-03-23T08:18:52;99687.16;;;12.50;52.46
9129;BME280;4599;50.906;6.786;2024-03-23T08:22:53;99691.72;;;12.65;51.89
9129;BME280;4599;50.906;6.786;2024-03-23T08:26:55;99685.34;;;13.43;51.50
9129;BME280;4599;50.906;6.786;2024-03-23T08:31:01;99696.59;;;13.87;52.32
9129;BME280;4599;50.906;6.786;2024-03-23T08:35:05;99698.06;;;13.89;51.37
9129;BME280;4599;50.906;6.786;2024-03-23T08:39:12;99698.44;;;13.77;52.53
9129;BME280;4599;50.906;6.786;2024-03-23T08:43:14;99713.22;;;14.10;51.87
9129;BME280;4599;50.906;6.786;2024-03-23T08:47:15;99703.78;;;13.02;53.95
9129;BME280;4599;50.906;6.786;2024-03-23T08:51:17;99702.78;;;11.70;59.49
9129;BME280;4599;50.906;6.786;2024-03-23T08:55:18;99703.88;;;10.87;62.34
9129;BME280;4599;50.906;6.786;2024-03-23T08:59:20;99695.34;;;11.08;64.50
9129;BME280;4599;50.906;6.786;2024-03-23T09:08:14;99687.53;;;10.88;63.83
9129;BME280;4599;50.906;6.786;2024-03-23T09:12:16;99689.56;;;9.91;66.32
9129;BME280;4599;50.906;6.786;2024-03-23T09:16:17;99691.59;;;9.65;68.73
9129;BME280;4599;50.906;6.786;2024-03-23T09:20:18;99694.00;;;9.24;69.32
9129;BME280;4599;50.906;6.786;2024-03-23T09:24:21;99691.41;;;8.90;70.54
9129;BME280;4599;50.906;6.786;2024-03-23T09:28:22;99697.56;;;8.77;72.39
9129;BME280;4599;50.906;6.786;2024-03-23T09:32:29;99696.97;;;9.40;70.77
9129;BME280;4599;50.906;6.786;2024-03-23T09:36:31;99693.16;;;9.88;68.38
9129;BME280;4599;50.906;6.786;2024-03-23T09:40:33;99678.81;;;11.90;62.54
9129;BME280;4599;50.906;6.786;2024-03-23T09:44:35;99669.47;;;12.93;55.00
9129;BME280;4599;50.906;6.786;2024-03-23T09:48:36;99667.09;;;13.81;50.47
9129;BME280;4599;50.906;6.786;2024-03-23T09:52:37;99661.34;;;14.66;47.80
9129;BME280;4599;50.906;6.786;2024-03-23T09:56:39;99661.66;;;14.97;47.81
9129;BME280;4599;50.906;6.786;2024-03-23T10:00:41;99659.63;;;15.17;45.64
9129;BME280;4599;50.906;6.786;2024-03-23T10:04:42;99664.22;;;14.20;46.93
9129;BME280;4599;50.906;6.786;2024-03-23T10:08:43;99663.63;;;13.90;48.76
9129;BME280;4599;50.906;6.786;2024-03-23T10:12:46;99659.59;;;12.79;51.21
9129;BME280;4599;50.906;6.786;2024-03-23T10:16:47;99679.72;;;11.20;54.01
9129;BME280;4599;50.906;6.786;2024-03-23T10:20:51;99693.00;;;10.01;61.41
9129;BME280;4599;50.906;6.786;2024-03-23T10:24:52;99712.81;;;9.23;67.75
9129;BME280;4599;50.906;6.786;2024-03-23T10:28:58;99697.50;;;8.20;71.70
9129;BME280;4599;50.906;6.786;2024-03-23T10:33:07;99701.31;;;7.67;74.22
9129;BME280;4599;50.906;6.786;2024-03-23T10:37:08;99709.47;;;7.59;76.06
9129;BME280;4599;50.906;6.786;2024-03-23T10:41:11;99675.25;;;7.98;76.44
9129;BME280;4599;50.906;6.786;2024-03-23T10:45:13;99696.88;;;8.97;74.72
9129;BME280;4599;50.906;6.786;2024-03-23T10:49:14;99695.00;;;10.29;73.17
9129;BME280;4599;50.906;6.786;2024-03-23T10:53:15;99693.41;;;10.17;68.34
9129;BME280;4599;50.906;6.786;2024-03-23T10:57:21;99685.53;;;10.09;69.14
9129;BME280;4599;50.906;6.786;2024-03-23T11:01:25;99680.09;;;10.34;67.53
9129;BME280;4599;50.906;6.786;2024-03-23T11:05:29;99671.19;;;11.20;64.85
9129;BME280;4599;50.906;6.786;2024-03-23T11:09:41;99671.50;;;10.86;64.32
9129;BME280;4599;50.906;6.786;2024-03-23T11:13:42;99673.50;;;10.21;66.38
9129;BME280;4599;50.906;6.786;2024-03-23T11:18:02;99682.03;;;9.78;67.28
9129;BME280;4599;50.906;6.786;2024-03-23T11:22:04;99675.25;;;9.45;65.56
9129;BME280;4599;50.906;6.786;2024-03-23T11:26:08;99676.91;;;9.13;66.75
9129;BME280;4599;50.906;6.786;2024-03-23T11:30:16;99673.31;;;9.16;67.16
9129;BME280;4599;50.906;6.786;2024-03-23T11:34:19;99664.91;;;9.36;67.79
9129;BME280;4599;50.906;6.786;2024-03-23T11:38:20;99670.41;;;9.20;67.90
9129;BME280;4599;50.906;6.786;2024-03-23T11:42:21;99658.84;;;9.48;67.49
9129;BME280;4599;50.906;6.786;2024-03-23T11:46:22;99691.59;;;10.08;64.26
9129;BME280;4599;50.906;6.786;2024-03-23T11:50:24;99687.69;;;8.83;63.05
9129;BME280;4599;50.906;6.786;2024-03-23T11:54:26;99696.75;;;8.07;65.12
9129;BME280;4599;50.906;6.786;2024-03-23T11:58:27;99682.94;;;7.74;68.63
9129;BME280;4599;50.906;6.786;2024-03-23T12:02:28;99669.59;;;9.20;65.24
9129;BME280;4599;50.906;6.786;2024-03-23T12:06:31;99656.66;;;12.18;63.45
9129;BME280;4599;50.906;6.786;2024-03-23T12:10:32;99661.28;;;11.55;61.70
9129;BME280;4599;50.906;6.786;2024-03-23T12:14:34;99679.38;;;10.00;65.68
9129;BME280;4599;50.906;6.786;2024-03-23T12:18:34;99697.63;;;8.18;68.93
9129;BME280;4599;50.906;6.786;2024-03-23T12:22:37;99723.66;;;7.14;71.56
9129;BME280;4599;50.906;6.786;2024-03-23T12:26:38;99723.44;;;6.27;73.21
9129;BME280;4599;50.906;6.786;2024-03-23T12:30:39;99710.16;;;5.83;76.60
9129;BME280;4599;50.906;6.786;2024-03-23T12:34:40;99706.91;;;7.35;77.27
9129;BME280;4599;50.906;6.786;2024-03-23T12:38:42;99686.03;;;13.18;56.06
9129;BME280;4599;50.906;6.786;2024-03-23T12:42:43;99664.41;;;15.45;47.28
9129;BME280;4599;50.906;6.786;2024-03-23T12:46:44;99642.41;;;14.91;46.33
9129;BME280;4599;50.906;6.786;2024-03-23T12:50:46;99675.69;;;13.72;49.79
9129;BME280;4599;50.906;6.786;2024-03-23T12:54:48;99671.63;;;11.25;57.17
9129;BME280;4599;50.906;6.786;2024-03-23T12:58:48;99672.56;;;9.36;59.64
9129;BME280;4599;50.906;6.786;2024-03-23T13:02:49;99670.50;;;8.63;63.78
9129;BME280;4599;50.906;6.786;2024-03-23T13:06:50;99666.00;;;9.76;62.39
9129;BME280;4599;50.906;6.786;2024-03-23T13:10:52;99642.66;;;16.53;42.59
9129;BME280;4599;50.906;6.786;2024-03-23T13:14:53;99645.84;;;19.28;38.30
9129;BME280;4599;50.906;6.786;2024-03-23T13:18:54;99639.94;;;15.58;44.90
9129;BME280;4599;50.906;6.786;2024-03-23T13:22:56;99648.72;;;13.31;48.87
9129;BME280;4599;50.906;6.786;2024-03-23T13:26:58;99653.22;;;12.36;55.33
9129;BME280;4599;50.906;6.786;2024-03-23T13:30:59;99645.16;;;12.03;56.78
9129;BME280;4599;50.906;6.786;2024-03-23T13:35:00;99628.59;;;12.53;54.36
9129;BME280;4599;50.906;6.786;2024-03-23T13:39:01;99617.00;;;12.30;56.37
9129;BME280;4599;50.906;6.786;2024-03-23T13:43:03;99624.44;;;11.66;55.22
9129;BME280;4599;50.906;6.786;2024-03-23T13:47:04;99628.22;;;10.42;59.27
9129;BME280;4599;50.906;6.786;2024-03-23T13:51:05;99658.16;;;9.46;58.84
9129;BME280;4599;50.906;6.786;2024-03-23T13:55:06;99653.19;;;8.67;59.69
9129;BME280;4599;50.906;6.786;2024-03-23T13:59:08;99649.03;;;7.72;67.31
9129;BME280;4599;50.906;6.786;2024-03-23T14:03:09;99642.75;;;7.89;68.38
9129;BME280;4599;50.906;6.786;2024-03-23T14:07:10;99643.22;;;8.18;67.47
9129;BME280;4599;50.906;6.786;2024-03-23T14:11:11;99625.13;;;8.78;66.23
9129;BME280;4599;50.906;6.786;2024-03-23T14:15:13;99623.59;;;8.97;64.04
9129;BME280;4599;50.906;6.786;2024-03-23T14:19:14;99616.50;;;9.12;61.64
9129;BME280;4599;50.906;6.786;2024-03-23T14:23:14;99623.97;;;8.82;61.94
9129;BME280;4599;50.906;6.786;2024-03-23T14:27:15;99609.06;;;8.87;63.31
9129;BME280;4599;50.906;6.786;2024-03-23T14:31:18;99617.56;;;8.98;61.08
9129;BME280;4599;50.906;6.786;2024-03-23T14:35:19;99618.22;;;9.12;60.91
9129;BME280;4599;50.906;6.786;2024-03-23T14:39:41;99639.50;;;8.90;63.94
9129;BME280;4599;50.906;6.786;2024-03-23T14:43:45;99667.47;;;8.58;65.80
9129;BME280;4599;50.906;6.786;2024-03-23T14:47:52;99689.34;;;7.43;66.82
9129;BME280;4599;50.906;6.786;2024-03-23T14:51:56;99694.41;;;6.94;70.04
9129;BME280;4599;50.906;6.786;2024-03-23T14:56:02;99693.81;;;6.14;74.06
9129;BME280;4599;50.906;6.786;2024-03-23T15:00:11;99661.91;;;5.95;76.70
9129;BME280;4599;50.906;6.786;2024-03-23T15:04:22;99658.41;;;5.84;78.49
9129;BME280;4599;50.906;6.786;2024-03-23T15:08:25;99663.13;;;5.90;80.69
9129;BME280;4599;50.906;6.786;2024-03-23T15:12:27;99643.19;;;6.23;83.18
9129;BME280;4599;50.906;6.786;2024-03-23T15:16:28;99638.00;;;6.50;82.61
9129;BME280;4599;50.906;6.786;2024-03-23T15:20:31;99646.03;;;6.44;80.46
9129;BME280;4599;50.906;6.786;2024-03-23T15:24:32;99633.94;;;6.47;81.18
9129;BME280;4599;50.906;6.786;2024-03-23T15:28:33;99623.34;;;6.54;83.01
9129;BME280;4599;50.906;6.786;2024-03-23T15:32:33;99606.81;;;6.84;81.85
9129;BME280;4599;50.906;6.786;2024-03-23T15:36:36;99599.69;;;6.77;78.35
9129;BME280;4599;50.906;6.786;2024-03-23T15:40:36;99597.78;;;6.68;81.62
9129;BME280;4599;50.906;6.786;2024-03-23T15:44:37;99604.88;;;6.63;81.12
9129;BME280;4599;50.906;6.786;2024-03-23T15:48:38;99608.06;;;6.41;83.02
9129;BME280;4599;50.906;6.786;2024-03-23T15:52:40;99610.91;;;6.62;84.36
9129;BME280;4599;50.906;6.786;2024-03-23T15:56:41;99635.34;;;6.52;84.94
9129;BME280;4599;50.906;6.786;2024-03-23T16:00:41;99633.81;;;6.49;82.55
9129;BME280;4599;50.906;6.786;2024-03-23T16:04:42;99642.44;;;6.09;79.46
9129;BME280;4599;50.906;6.786;2024-03-23T16:08:44;99640.78;;;5.95;79.36
9129;BME280;4599;50.906;6.786;2024-03-23T16:12:45;99610.53;;;5.90;81.39
9129;BME280;4599;50.906;6.786;2024-03-23T16:16:46;99585.16;;;5.76;78.05
9129;BME280;4599;50.906;6.786;2024-03-23T16:20:52;99588.00;;;5.98;82.68
9129;BME280;4599;50.906;6.786;2024-03-23T16:24:54;99575.47;;;6.08;83.83
9129;BME280;4599;50.906;6.786;2024-03-23T16:28:55;99575.69;;;6.18;82.46
9129;BME280;4599;50.906;6.786;2024-03-23T16:32:55;99577.81;;;6.49;83.37
9129;BME280;4599;50.906;6.786;2024-03-23T16:36:56;99581.50;;;6.32;83.12
9129;BME280;4599;50.906;6.786;2024-03-23T16:40:59;99580.09;;;6.41;84.17
9129;BME280;4599;50.906;6.786;2024-03-23T16:45:00;99575.59;;;6.44;83.11
9129;BME280;4599;50.906;6.786;2024-03-23T16:49:01;99575.28;;;6.11;79.85
9129;BME280;4599;50.906;6.786;2024-03-23T16:53:02;99571.59;;;6.03;82.55
9129;BME280;4599;50.906;6.786;2024-03-23T16:57:04;99562.13;;;5.92;85.65
9129;BME280;4599;50.906;6.786;2024-03-23T17:01:05;99561.41;;;5.90;86.62
9129;BME280;4599;50.906;6.786;2024-03-23T17:05:07;99556.28;;;5.77;87.30
9129;BME280;4599;50.906;6.786;2024-03-23T17:09:09;99555.97;;;5.69;86.24
9129;BME280;4599;50.906;6.786;2024-03-23T17:13:11;99539.53;;;5.48;87.43
9129;BME280;4599;50.906;6.786;2024-03-23T17:17:12;99561.25;;;5.39;89.33
9129;BME280;4599;50.906;6.786;2024-03-23T17:21:13;99556.38;;;5.36;89.09
9129;BME280;4599;50.906;6.786;2024-03-23T17:25:14;99558.69;;;5.27;89.83
9129;BME280;4599;50.906;6.786;2024-03-23T17:29:16;99557.25;;;5.35;89.67
9129;BME280;4599;50.906;6.786;2024-03-23T17:33:17;99552.69;;;5.28;89.17
9129;BME280;4599;50.906;6.786;2024-03-23T17:37:18;99541.94;;;5.37;90.04
9129;BME280;4599;50.906;6.786;2024-03-23T17:41:20;99537.97;;;5.33;89.48
9129;BME280;4599;50.906;6.786;2024-03-23T17:45:25;99543.88;;;5.46;90.23
9129;BME280;4599;50.906;6.786;2024-03-23T17:49:34;99543.88;;;5.46;90.51
9129;BME280;4599;50.906;6.786;2024-03-23T17:53:42;99542.97;;;5.47;89.76
9129;BME280;4599;50.906;6.786;2024-03-23T17:57:44;99546.97;;;5.51;90.30
9129;BME280;4599;50.906;6.786;2024-03-23T18:01:46;99541.28;;;5.60;90.16
9129;BME280;4599;50.906;6.786;2024-03-23T18:05:47;99550.31;;;5.51;89.93
9129;BME280;4599;50.906;6.786;2024-03-23T18:09:57;99557.66;;;5.56;90.16
9129;BME280;4599;50.906;6.786;2024-03-23T18:13:58;99563.25;;;5.61;90.04
9129;BME280;4599;50.906;6.786;2024-03-23T18:18:00;99573.06;;;5.40;89.53
9129;BME280;4599;50.906;6.786;2024-03-23T18:22:01;99588.44;;;5.51;90.46
9129;BME280;4599;50.906;6.786;2024-03-23T18:26:02;99606.28;;;5.37;86.33
9129;BME280;4599;50.906;6.786;2024-03-23T18:30:06;99596.06;;;5.11;89.49
9129;BME280;4599;50.906;6.786;2024-03-23T18:34:12;99592.09;;;5.07;88.20
9129;BME280;4599;50.906;6.786;2024-03-23T18:38:14;99583.47;;;5.09;87.90
9129;BME280;4599;50.906;6.786;2024-03-23T18:42:19;99558.59;;;4.73;90.14
9129;BME280;4599;50.906;6.786;2024-03-23T18:46:21;99550.88;;;4.75;90.30
9129;BME280;4599;50.906;6.786;2024-03-23T18:50:23;99557.06;;;4.71;89.13
9129;BME280;4599;50.906;6.786;2024-03-23T18:54:24;99559.69;;;4.55;90.92
9129;BME280;4599;50.906;6.786;2024-03-23T18:58:25;99558.34;;;4.35;90.81
9129;BME280;4599;50.906;6.786;2024-03-23T19:02:25;99556.25;;;4.42;91.44
9129;BME280;4599;50.906;6.786;2024-03-23T19:06:28;99550.38;;;4.27;90.99
9129;BME280;4599;50.906;6.786;2024-03-23T19:10:29;99548.34;;;4.18;92.05
9129;BME280;4599;50.906;6.786;2024-03-23T19:14:30;99536.41;;;4.20;92.08
9129;BME280;4599;50.906;6.786;2024-03-23T19:18:35;99535.50;;;4.07;92.49
9129;BME280;4599;50.906;6.786;2024-03-23T19:22:51;99533.31;;;4.01;92.54
9129;BME280;4599;50.906;6.786;2024-03-23T19:26:52;99531.81;;;3.83;92.91
9129;BME280;4599;50.906;6.786;2024-03-23T19:30:55;99536.19;;;3.95;92.43
9129;BME280;4599;50.906;6.786;2024-03-23T19:35:01;99536.63;;;3.87;92.43
9129;BME280;4599;50.906;6.786;2024-03-23T19:39:03;99523.03;;;3.74;92.77
9129;BME280;4599;50.906;6.786;2024-03-23T19:43:04;99527.53;;;3.69;92.88
9129;BME280;4599;50.906;6.786;2024-03-23T19:47:05;99523.72;;;3.62;92.92
9129;BME280;4599;50.906;6.786;2024-03-23T19:51:05;99521.00;;;3.65;93.32
9129;BME280;4599;50.906;6.786;2024-03-23T19:55:08;99510.59;;;3.56;93.23
9129;BME280;4599;50.906;6.786;2024-03-23T19:59:11;99503.63;;;3.59;93.77
9129;BME280;4599;50.906;6.786;2024-03-23T20:03:13;99497.66;;;3.60;93.56
9129;BME280;4599;50.906;6.786;2024-03-23T20:07:15;99499.38;;;3.60;94.64
9129;BME280;4599;50.906;6.786;2024-03-23T20:11:17;99499.50;;;3.86;94.95
9129;BME280;4599;50.906;6.786;2024-03-23T20:15:17;99504.88;;;3.96;94.37
9129;BME280;4599;50.906;6.786;2024-03-23T20:19:18;99511.41;;;4.00;95.01
9129;BME280;4599;50.906;6.786;2024-03-23T20:23:19;99514.03;;;4.13;95.81
9129;BME280;4599;50.906;6.786;2024-03-23T20:27:22;99507.88;;;4.17;95.35
9129;BME280;4599;50.906;6.786;2024-03-23T20:31:23;99505.81;;;4.23;95.31
9129;BME280;4599;50.906;6.786;2024-03-23T20:35:23;99497.63;;;4.32;95.22
9129;BME280;4599;50.906;6.786;2024-03-23T20:39:24;99489.75;;;4.37;94.80
9129;BME280;4599;50.906;6.786;2024-03-23T20:43:27;99501.81;;;4.47;95.03
9129;BME280;4599;50.906;6.786;2024-03-23T20:47:27;99506.16;;;4.45;95.62
9129;BME280;4599;50.906;6.786;2024-03-23T20:51:28;99510.78;;;4.53;95.82
9129;BME280;4599;50.906;6.786;2024-03-23T20:55:29;99521.72;;;4.53;96.17
9129;BME280;4599;50.906;6.786;2024-03-23T20:59:31;99509.78;;;4.56;95.92
9129;BME280;4599;50.906;6.786;2024-03-23T21:03:33;99498.19;;;4.51;94.66
9129;BME280;4599;50.906;6.786;2024-03-23T21:07:34;99513.56;;;4.63;94.41
9129;BME280;4599;50.906;6.786;2024-03-23T21:11:34;99496.91;;;4.59;93.46
9129;BME280;4599;50.906;6.786;2024-03-23T21:15:37;99501.81;;;4.47;93.75
9129;BME280;4599;50.906;6.786;2024-03-23T21:19:37;99497.09;;;4.56;94.38
9129;BME280;4599;50.906;6.786;2024-03-23T21:23:38;99491.13;;;4.42;94.81
9129;BME280;4599;50.906;6.786;2024-03-23T21:27:39;99483.88;;;4.36;95.71
9129;BME280;4599;50.906;6.786;2024-03-23T21:31:42;99475.81;;;4.30;95.08
9129;BME280;4599;50.906;6.786;2024-03-23T21:35:43;99481.63;;;4.18;95.37
9129;BME280;4599;50.906;6.786;2024-03-23T21:39:44;99476.81;;;4.27;94.44
9129;BME280;4599;50.906;6.786;2024-03-23T21:43:45;99469.94;;;4.29;94.17
9129;BME280;4599;50.906;6.786;2024-03-23T21:47:47;99479.25;;;4.29;94.48
9129;BME280;4599;50.906;6.786;2024-03-23T21:51:48;99480.19;;;4.28;94.83
9129;BME280;4599;50.906;6.786;2024-03-23T21:55:51;99481.44;;;4.35;94.82
9129;BME280;4599;50.906;6.786;2024-03-23T21:59:52;99486.41;;;4.22;93.67
9129;BME280;4599;50.906;6.786;2024-03-23T22:03:54;99497.28;;;4.10;93.03
9129;BME280;4599;50.906;6.786;2024-03-23T22:07:55;99488.28;;;3.90;91.98
9129;BME280;4599;50.906;6.786;2024-03-23T22:11:56;99462.75;;;3.79;93.16
9129;BME280;4599;50.906;6.786;2024-03-23T22:15:57;99447.47;;;3.95;92.93
9129;BME280;4599;50.906;6.786;2024-03-23T22:19:59;99446.09;;;3.61;94.75
9129;BME280;4599;50.906;6.786;2024-03-23T22:24:01;99447.03;;;3.88;94.06
9129;BME280;4599;50.906;6.786;2024-03-23T22:28:03;99437.41;;;3.79;94.03
9129;BME280;4599;50.906;6.786;2024-03-23T22:32:04;99431.06;;;3.72;95.54
9129;BME280;4599;50.906;6.786;2024-03-23T22:36:07;99432.91;;;3.70;96.45
9129;BME280;4599;50.906;6.786;2024-03-23T22:40:09;99425.50;;;3.81;96.11
9129;BME280;4599;50.906;6.786;2024-03-23T22:44:10;99425.31;;;3.84;96.13
9129;BME280;4599;50.906;6.786;2024-03-23T22:48:11;99425.50;;;3.81;96.65
9129;BME280;4599;50.906;6.786;2024-03-23T22:52:13;99408.75;;;3.79;96.59
9129;BME280;4599;50.906;6.786;2024-03-23T22:56:14;99416.44;;;3.91;96.87
9129;BME280;4599;50.906;6.786;2024-03-23T23:00:15;99409.84;;;3.89;96.16
9129;BME280;4599;50.906;6.786;2024-03-23T23:04:16;99413.25;;;3.74;96.22
9129;BME280;4599;50.906;6.786;2024-03-23T23:08:19;99404.84;;;3.73;96.25